sensor_id;sensor_type;location;lat;lon;timestamp;P1;durP1;ratioP1;P2;durP2;ratioP2
15946;SDS011;8072;52.554;7.966;2023-07-31T00:02:06;2.37;;;1.90;;
15946;SDS011;8072;52.554;7.966;2023-07-31T00:04:32;5.97;;;2.20;;
15946;SDS011;8072;52.554;7.966;2023-07-31T00:06:58;2.63;;;1.90;;
15946;SDS011;8072;52.554;7.966;2023-07-31T00:09:24;2.10;;;1.90;;
15946;SDS011;8072;52.554;7.966;2023-07-31T00:11:49;2.63;;;2.03;;
15946;SDS011;8072;52.554;7.966;2023-07-31T00:14:15;3.00;;;1.87;;
15946;SDS011;8072;52.554;7.966;2023-07-31T00:16:41;4.17;;;2.13;;
15946;SDS011;8072;52.554;7.966;2023-07-31T00:19:06;3.43;;;2.30;;
15946;SDS011;8072;52.554;7.966;2023-07-31T00:21:32;2.30;;;2.07;;
15946;SDS011;8072;52.554;7.966;2023-07-31T00:23:59;3.60;;;2.37;;
15946;SDS011;8072;52.554;7.966;2023-07-31T00:26:25;2.60;;;2.30;;
15946;SDS011;8072;52.554;7.966;2023-07-31T00:28:50;3.53;;;2.17;;
15946;SDS011;8072;52.554;7.966;2023-07-31T00:31:16;3.90;;;2.30;;
15946;SDS011;8072;52.554;7.966;2023-07-31T00:33:42;3.90;;;2.63;;
15946;SDS011;8072;52.554;7.966;2023-07-31T00:36:07;2.67;;;2.33;;
15946;SDS011;8072;52.554;7.966;2023-07-31T00:38:33;4.70;;;2.57;;
15946;SDS011;8072;52.554;7.966;2023-07-31T00:40:59;4.37;;;2.40;;
15946;SDS011;8072;52.554;7.966;2023-07-31T00:43:24;4.17;;;2.67;;
15946;SDS011;8072;52.554;7.966;2023-07-31T00:45:50;4.63;;;2.57;;
15946;SDS011;8072;52.554;7.966;2023-07-31T00:48:16;3.63;;;2.30;;
15946;SDS011;8072;52.554;7.966;2023-07-31T00:50:41;3.97;;;2.67;;
15946;SDS011;8072;52.554;7.966;2023-07-31T00:53:07;4.30;;;2.50;;
15946;SDS011;8072;52.554;7.966;2023-07-31T00:55:33;2.73;;;2.33;;
15946;SDS011;8072;52.554;7.966;2023-07-31T00:57:59;5.87;;;2.73;;
15946;SDS011;8072;52.554;7.966;2023-07-31T01:00:25;3.87;;;2.63;;
15946;SDS011;8072;52.554;7.966;2023-07-31T01:02:50;2.83;;;2.30;;
15946;SDS011;8072;52.554;7.966;2023-07-31T01:05:18;3.50;;;2.67;;
15946;SDS011;8072;52.554;7.966;2023-07-31T01:10:49;2.80;;;2.40;;
15946;SDS011;8072;52.554;7.966;2023-07-31T01:13:20;2.33;;;2.10;;
15946;SDS011;8072;52.554;7.966;2023-07-31T01:15:46;3.20;;;2.53;;
15946;SDS011;8072;52.554;7.966;2023-07-31T01:18:12;3.97;;;2.50;;
15946;SDS011;8072;52.554;7.966;2023-07-31T01:20:38;2.80;;;2.30;;
15946;SDS011;8072;52.554;7.966;2023-07-31T01:23:13;3.43;;;2.57;;
15946;SDS011;8072;52.554;7.966;2023-07-31T01:28:19;3.90;;;2.40;;
15946;SDS011;8072;52.554;7.966;2023-07-31T01:30:58;5.20;;;2.70;;
15946;SDS011;8072;52.554;7.966;2023-07-31T01:33:27;3.93;;;2.57;;
15946;SDS011;8072;52.554;7.966;2023-07-31T01:35:53;4.27;;;2.83;;
15946;SDS011;8072;52.554;7.966;2023-07-31T01:38:22;3.10;;;2.50;;
15946;SDS011;8072;52.554;7.966;2023-07-31T01:40:50;4.17;;;2.70;;
15946;SDS011;8072;52.554;7.966;2023-07-31T01:43:18;4.03;;;3.17;;
15946;SDS011;8072;52.554;7.966;2023-07-31T01:45:43;4.47;;;3.13;;
15946;SDS011;8072;52.554;7.966;2023-07-31T01:48:09;4.33;;;2.80;;
15946;SDS011;8072;52.554;7.966;2023-07-31T01:50:35;2.93;;;2.40;;
15946;SDS011;8072;52.554;7.966;2023-07-31T01:53:01;3.20;;;2.53;;
15946;SDS011;8072;52.554;7.966;2023-07-31T01:55:26;3.87;;;2.37;;
15946;SDS011;8072;52.554;7.966;2023-07-31T01:57:52;5.13;;;2.60;;
15946;SDS011;8072;52.554;7.966;2023-07-31T02:00:18;3.20;;;2.53;;
15946;SDS011;8072;52.554;7.966;2023-07-31T02:02:43;3.47;;;2.77;;
15946;SDS011;8072;52.554;7.966;2023-07-31T02:05:09;3.57;;;2.37;;
15946;SDS011;8072;52.554;7.966;2023-07-31T02:07:35;3.80;;;2.60;;
15946;SDS011;8072;52.554;7.966;2023-07-31T02:10:01;3.83;;;2.40;;
15946;SDS011;8072;52.554;7.966;2023-07-31T02:12:26;3.50;;;2.80;;
15946;SDS011;8072;52.554;7.966;2023-07-31T02:14:55;4.13;;;2.60;;
15946;SDS011;8072;52.554;7.966;2023-07-31T02:17:21;4.03;;;2.70;;
15946;SDS011;8072;52.554;7.966;2023-07-31T02:19:46;4.00;;;2.40;;
15946;SDS011;8072;52.554;7.966;2023-07-31T02:22:12;3.50;;;2.50;;
15946;SDS011;8072;52.554;7.966;2023-07-31T02:24:38;4.03;;;2.50;;
15946;SDS011;8072;52.554;7.966;2023-07-31T02:27:04;3.50;;;2.37;;
15946;SDS011;8072;52.554;7.966;2023-07-31T02:29:30;3.53;;;2.40;;
15946;SDS011;8072;52.554;7.966;2023-07-31T02:31:56;2.90;;;2.23;;
15946;SDS011;8072;52.554;7.966;2023-07-31T02:34:22;2.87;;;2.53;;
15946;SDS011;8072;52.554;7.966;2023-07-31T02:36:47;2.40;;;1.87;;
15946;SDS011;8072;52.554;7.966;2023-07-31T02:39:13;2.50;;;2.30;;
15946;SDS011;8072;52.554;7.966;2023-07-31T02:41:39;3.30;;;2.20;;
15946;SDS011;8072;52.554;7.966;2023-07-31T02:44:04;2.60;;;2.40;;
15946;SDS011;8072;52.554;7.966;2023-07-31T02:46:30;2.07;;;1.87;;
15946;SDS011;8072;52.554;7.966;2023-07-31T02:48:56;3.27;;;2.23;;
15946;SDS011;8072;52.554;7.966;2023-07-31T02:51:22;2.90;;;2.23;;
15946;SDS011;8072;52.554;7.966;2023-07-31T02:53:48;2.80;;;2.03;;
15946;SDS011;8072;52.554;7.966;2023-07-31T02:56:14;2.30;;;1.83;;
15946;SDS011;8072;52.554;7.966;2023-07-31T02:58:40;3.10;;;1.73;;
15946;SDS011;8072;52.554;7.966;2023-07-31T03:01:06;3.23;;;1.80;;
15946;SDS011;8072;52.554;7.966;2023-07-31T03:03:32;2.37;;;2.10;;
15946;SDS011;8072;52.554;7.966;2023-07-31T03:05:57;2.17;;;1.67;;
15946;SDS011;8072;52.554;7.966;2023-07-31T03:08:23;2.97;;;2.30;;
15946;SDS011;8072;52.554;7.966;2023-07-31T03:10:49;2.13;;;1.80;;
15946;SDS011;8072;52.554;7.966;2023-07-31T03:13:14;2.33;;;1.80;;
15946;SDS011;8072;52.554;7.966;2023-07-31T03:15:44;2.20;;;1.60;;
15946;SDS011;8072;52.554;7.966;2023-07-31T03:18:10;3.73;;;1.73;;
15946;SDS011;8072;52.554;7.966;2023-07-31T03:20:36;1.73;;;1.60;;
15946;SDS011;8072;52.554;7.966;2023-07-31T03:23:01;2.97;;;1.47;;
15946;SDS011;8072;52.554;7.966;2023-07-31T03:25:27;3.67;;;1.60;;
15946;SDS011;8072;52.554;7.966;2023-07-31T03:27:53;2.07;;;1.50;;
15946;SDS011;8072;52.554;7.966;2023-07-31T03:30:19;1.57;;;1.43;;
15946;SDS011;8072;52.554;7.966;2023-07-31T03:32:45;1.77;;;1.67;;
15946;SDS011;8072;52.554;7.966;2023-07-31T03:35:11;2.73;;;1.60;;
15946;SDS011;8072;52.554;7.966;2023-07-31T03:37:37;2.27;;;1.57;;
15946;SDS011;8072;52.554;7.966;2023-07-31T03:40:03;1.37;;;1.23;;
15946;SDS011;8072;52.554;7.966;2023-07-31T03:42:29;1.83;;;1.40;;
15946;SDS011;8072;52.554;7.966;2023-07-31T03:44:55;2.03;;;1.53;;
15946;SDS011;8072;52.554;7.966;2023-07-31T03:47:21;2.00;;;1.60;;
15946;SDS011;8072;52.554;7.966;2023-07-31T03:49:47;1.23;;;1.10;;
15946;SDS011;8072;52.554;7.966;2023-07-31T03:52:13;1.50;;;1.27;;
15946;SDS011;8072;52.554;7.966;2023-07-31T03:54:38;1.17;;;1.03;;
15946;SDS011;8072;52.554;7.966;2023-07-31T03:57:04;1.23;;;1.13;;
15946;SDS011;8072;52.554;7.966;2023-07-31T03:59:30;1.50;;;1.10;;
15946;SDS011;8072;52.554;7.966;2023-07-31T04:01:56;1.40;;;0.90;;
15946;SDS011;8072;52.554;7.966;2023-07-31T04:04:21;1.43;;;1.10;;
15946;SDS011;8072;52.554;7.966;2023-07-31T04:06:47;1.23;;;1.10;;
15946;SDS011;8072;52.554;7.966;2023-07-31T04:09:13;1.40;;;1.30;;
15946;SDS011;8072;52.554;7.966;2023-07-31T04:11:39;1.43;;;1.20;;
15946;SDS011;8072;52.554;7.966;2023-07-31T04:14:04;1.83;;;1.10;;
15946;SDS011;8072;52.554;7.966;2023-07-31T04:16:30;1.30;;;1.20;;
15946;SDS011;8072;52.554;7.966;2023-07-31T04:18:56;1.40;;;1.30;;
15946;SDS011;8072;52.554;7.966;2023-07-31T04:21:22;1.53;;;1.40;;
15946;SDS011;8072;52.554;7.966;2023-07-31T04:23:48;2.00;;;1.10;;
15946;SDS011;8072;52.554;7.966;2023-07-31T04:26:13;1.30;;;1.10;;
15946;SDS011;8072;52.554;7.966;2023-07-31T04:28:39;1.30;;;1.03;;
15946;SDS011;8072;52.554;7.966;2023-07-31T04:31:05;1.90;;;1.30;;
15946;SDS011;8072;52.554;7.966;2023-07-31T04:33:31;1.30;;;1.20;;
15946;SDS011;8072;52.554;7.966;2023-07-31T04:35:57;1.57;;;1.00;;
15946;SDS011;8072;52.554;7.966;2023-07-31T04:38:23;1.40;;;1.10;;
15946;SDS011;8072;52.554;7.966;2023-07-31T04:40:49;1.30;;;1.00;;
15946;SDS011;8072;52.554;7.966;2023-07-31T04:43:14;1.50;;;1.00;;
15946;SDS011;8072;52.554;7.966;2023-07-31T04:45:42;1.47;;;1.20;;
15946;SDS011;8072;52.554;7.966;2023-07-31T04:48:11;3.20;;;1.03;;
15946;SDS011;8072;52.554;7.966;2023-07-31T04:50:37;1.10;;;1.00;;
15946;SDS011;8072;52.554;7.966;2023-07-31T04:53:03;0.97;;;0.80;;
15946;SDS011;8072;52.554;7.966;2023-07-31T04:55:29;1.33;;;0.90;;
15946;SDS011;8072;52.554;7.966;2023-07-31T04:57:54;1.00;;;0.90;;
15946;SDS011;8072;52.554;7.966;2023-07-31T05:00:20;1.77;;;1.10;;
15946;SDS011;8072;52.554;7.966;2023-07-31T05:02:46;1.37;;;1.27;;
15946;SDS011;8072;52.554;7.966;2023-07-31T05:05:12;2.83;;;1.40;;
15946;SDS011;8072;52.554;7.966;2023-07-31T05:07:37;4.40;;;1.23;;
15946;SDS011;8072;52.554;7.966;2023-07-31T05:10:03;1.80;;;1.40;;
15946;SDS011;8072;52.554;7.966;2023-07-31T05:12:29;4.00;;;1.80;;
15946;SDS011;8072;52.554;7.966;2023-07-31T05:14:55;2.37;;;1.50;;
15946;SDS011;8072;52.554;7.966;2023-07-31T05:17:21;4.53;;;2.17;;
15946;SDS011;8072;52.554;7.966;2023-07-31T05:19:46;4.53;;;2.77;;
15946;SDS011;8072;52.554;7.966;2023-07-31T05:22:12;5.40;;;2.93;;
15946;SDS011;8072;52.554;7.966;2023-07-31T05:24:38;4.67;;;3.37;;
15946;SDS011;8072;52.554;7.966;2023-07-31T05:27:03;7.13;;;3.73;;
15946;SDS011;8072;52.554;7.966;2023-07-31T05:29:30;5.80;;;3.90;;
15946;SDS011;8072;52.554;7.966;2023-07-31T05:31:55;8.07;;;3.90;;
15946;SDS011;8072;52.554;7.966;2023-07-31T05:34:21;6.07;;;4.27;;
15946;SDS011;8072;52.554;7.966;2023-07-31T05:36:47;9.57;;;4.93;;
15946;SDS011;8072;52.554;7.966;2023-07-31T05:39:12;14.37;;;4.60;;
15946;SDS011;8072;52.554;7.966;2023-07-31T05:41:38;12.27;;;5.87;;
15946;SDS011;8072;52.554;7.966;2023-07-31T05:44:04;14.53;;;7.13;;
15946;SDS011;8072;52.554;7.966;2023-07-31T05:46:30;13.40;;;6.37;;
15946;SDS011;8072;52.554;7.966;2023-07-31T05:48:56;12.40;;;7.23;;
15946;SDS011;8072;52.554;7.966;2023-07-31T05:51:22;16.03;;;7.63;;
15946;SDS011;8072;52.554;7.966;2023-07-31T05:53:48;15.13;;;8.50;;
15946;SDS011;8072;52.554;7.966;2023-07-31T05:56:13;21.17;;;8.30;;
15946;SDS011;8072;52.554;7.966;2023-07-31T05:58:39;16.37;;;7.50;;
15946;SDS011;8072;52.554;7.966;2023-07-31T06:01:05;21.80;;;9.10;;
15946;SDS011;8072;52.554;7.966;2023-07-31T06:03:30;18.53;;;9.57;;
15946;SDS011;8072;52.554;7.966;2023-07-31T06:05:56;22.93;;;8.73;;
15946;SDS011;8072;52.554;7.966;2023-07-31T06:08:22;22.20;;;8.50;;
15946;SDS011;8072;52.554;7.966;2023-07-31T06:10:48;19.10;;;9.07;;
15946;SDS011;8072;52.554;7.966;2023-07-31T06:13:13;25.77;;;9.53;;
15946;SDS011;8072;52.554;7.966;2023-07-31T06:15:42;23.70;;;9.80;;
15946;SDS011;8072;52.554;7.966;2023-07-31T06:18:08;23.33;;;9.53;;
15946;SDS011;8072;52.554;7.966;2023-07-31T06:20:34;25.63;;;9.83;;
15946;SDS011;8072;52.554;7.966;2023-07-31T06:23:00;23.07;;;9.20;;
15946;SDS011;8072;52.554;7.966;2023-07-31T06:25:25;26.23;;;10.00;;
15946;SDS011;8072;52.554;7.966;2023-07-31T06:27:51;27.57;;;10.13;;
15946;SDS011;8072;52.554;7.966;2023-07-31T06:30:17;22.43;;;9.50;;
15946;SDS011;8072;52.554;7.966;2023-07-31T06:32:43;21.17;;;9.07;;
15946;SDS011;8072;52.554;7.966;2023-07-31T06:35:08;22.27;;;9.30;;
15946;SDS011;8072;52.554;7.966;2023-07-31T06:37:34;25.53;;;10.10;;
15946;SDS011;8072;52.554;7.966;2023-07-31T06:40:00;28.47;;;9.80;;
15946;SDS011;8072;52.554;7.966;2023-07-31T06:42:25;25.60;;;8.93;;
15946;SDS011;8072;52.554;7.966;2023-07-31T06:44:52;21.77;;;8.83;;
15946;SDS011;8072;52.554;7.966;2023-07-31T06:47:17;24.40;;;9.07;;
15946;SDS011;8072;52.554;7.966;2023-07-31T06:49:43;23.83;;;8.53;;
15946;SDS011;8072;52.554;7.966;2023-07-31T06:52:09;22.57;;;10.40;;
15946;SDS011;8072;52.554;7.966;2023-07-31T06:54:36;19.93;;;8.43;;
15946;SDS011;8072;52.554;7.966;2023-07-31T06:57:01;23.57;;;8.57;;
15946;SDS011;8072;52.554;7.966;2023-07-31T06:59:28;21.33;;;8.10;;
15946;SDS011;8072;52.554;7.966;2023-07-31T07:01:54;17.70;;;8.20;;
15946;SDS011;8072;52.554;7.966;2023-07-31T07:04:20;16.97;;;7.97;;
15946;SDS011;8072;52.554;7.966;2023-07-31T07:06:45;22.80;;;7.97;;
15946;SDS011;8072;52.554;7.966;2023-07-31T07:09:11;21.73;;;8.23;;
15946;SDS011;8072;52.554;7.966;2023-07-31T07:11:37;23.27;;;8.70;;
15946;SDS011;8072;52.554;7.966;2023-07-31T07:14:03;24.13;;;8.23;;
15946;SDS011;8072;52.554;7.966;2023-07-31T07:16:28;19.43;;;7.30;;
15946;SDS011;8072;52.554;7.966;2023-07-31T07:18:54;19.67;;;8.63;;
15946;SDS011;8072;52.554;7.966;2023-07-31T07:21:20;17.17;;;7.23;;
15946;SDS011;8072;52.554;7.966;2023-07-31T07:23:45;21.53;;;7.73;;
15946;SDS011;8072;52.554;7.966;2023-07-31T07:26:11;25.03;;;8.60;;
15946;SDS011;8072;52.554;7.966;2023-07-31T07:28:37;17.37;;;7.30;;
15946;SDS011;8072;52.554;7.966;2023-07-31T07:31:03;15.23;;;7.17;;
15946;SDS011;8072;52.554;7.966;2023-07-31T07:33:28;21.33;;;8.43;;
15946;SDS011;8072;52.554;7.966;2023-07-31T07:35:54;16.43;;;7.60;;
15946;SDS011;8072;52.554;7.966;2023-07-31T07:38:20;17.17;;;7.27;;
15946;SDS011;8072;52.554;7.966;2023-07-31T07:40:46;20.90;;;7.37;;
15946;SDS011;8072;52.554;7.966;2023-07-31T07:43:15;15.47;;;6.30;;
15946;SDS011;8072;52.554;7.966;2023-07-31T07:45:41;15.83;;;6.63;;
15946;SDS011;8072;52.554;7.966;2023-07-31T07:48:06;13.60;;;6.50;;
15946;SDS011;8072;52.554;7.966;2023-07-31T07:50:32;15.53;;;6.37;;
15946;SDS011;8072;52.554;7.966;2023-07-31T07:52:58;17.33;;;6.83;;
15946;SDS011;8072;52.554;7.966;2023-07-31T07:55:24;13.50;;;5.63;;
15946;SDS011;8072;52.554;7.966;2023-07-31T07:57:49;16.40;;;6.43;;
15946;SDS011;8072;52.554;7.966;2023-07-31T08:00:15;16.03;;;6.20;;
15946;SDS011;8072;52.554;7.966;2023-07-31T08:02:42;17.87;;;6.13;;
15946;SDS011;8072;52.554;7.966;2023-07-31T08:05:08;14.40;;;5.50;;
15946;SDS011;8072;52.554;7.966;2023-07-31T08:07:34;14.60;;;6.20;;
15946;SDS011;8072;52.554;7.966;2023-07-31T08:10:00;11.90;;;5.63;;
15946;SDS011;8072;52.554;7.966;2023-07-31T08:12:26;14.90;;;5.67;;
15946;SDS011;8072;52.554;7.966;2023-07-31T08:14:51;12.57;;;5.93;;
15946;SDS011;8072;52.554;7.966;2023-07-31T08:17:17;11.57;;;5.50;;
15946;SDS011;8072;52.554;7.966;2023-07-31T08:19:43;13.27;;;5.90;;
15946;SDS011;8072;52.554;7.966;2023-07-31T08:22:10;15.73;;;6.13;;
15946;SDS011;8072;52.554;7.966;2023-07-31T08:24:35;13.13;;;5.30;;
15946;SDS011;8072;52.554;7.966;2023-07-31T08:27:01;13.10;;;5.70;;
15946;SDS011;8072;52.554;7.966;2023-07-31T08:29:27;11.20;;;4.67;;
15946;SDS011;8072;52.554;7.966;2023-07-31T08:31:53;11.47;;;5.33;;
15946;SDS011;8072;52.554;7.966;2023-07-31T08:34:18;12.47;;;4.70;;
15946;SDS011;8072;52.554;7.966;2023-07-31T08:36:44;9.23;;;4.53;;
15946;SDS011;8072;52.554;7.966;2023-07-31T08:39:10;7.67;;;4.10;;
15946;SDS011;8072;52.554;7.966;2023-07-31T08:41:38;9.17;;;4.73;;
15946;SDS011;8072;52.554;7.966;2023-07-31T08:44:04;6.93;;;3.50;;
15946;SDS011;8072;52.554;7.966;2023-07-31T08:46:31;6.93;;;3.57;;
15946;SDS011;8072;52.554;7.966;2023-07-31T08:48:58;5.60;;;3.43;;
15946;SDS011;8072;52.554;7.966;2023-07-31T08:51:25;6.33;;;3.30;;
15946;SDS011;8072;52.554;7.966;2023-07-31T08:53:52;8.23;;;3.40;;
15946;SDS011;8072;52.554;7.966;2023-07-31T08:56:18;5.67;;;2.50;;
15946;SDS011;8072;52.554;7.966;2023-07-31T08:58:44;6.07;;;2.77;;
15946;SDS011;8072;52.554;7.966;2023-07-31T09:01:12;6.30;;;3.00;;
15946;SDS011;8072;52.554;7.966;2023-07-31T09:03:38;7.93;;;3.57;;
15946;SDS011;8072;52.554;7.966;2023-07-31T09:06:05;2.83;;;2.10;;
15946;SDS011;8072;52.554;7.966;2023-07-31T09:08:32;3.77;;;2.07;;
15946;SDS011;8072;52.554;7.966;2023-07-31T09:10:59;4.07;;;2.70;;
15946;SDS011;8072;52.554;7.966;2023-07-31T09:13:30;3.00;;;1.97;;
15946;SDS011;8072;52.554;7.966;2023-07-31T09:15:56;4.43;;;1.80;;
15946;SDS011;8072;52.554;7.966;2023-07-31T09:18:22;1.87;;;1.70;;
15946;SDS011;8072;52.554;7.966;2023-07-31T09:21:04;2.90;;;1.80;;
15946;SDS011;8072;52.554;7.966;2023-07-31T09:23:40;2.83;;;1.70;;
15946;SDS011;8072;52.554;7.966;2023-07-31T09:26:10;2.83;;;1.50;;
15946;SDS011;8072;52.554;7.966;2023-07-31T09:28:36;3.37;;;1.50;;
15946;SDS011;8072;52.554;7.966;2023-07-31T09:31:02;4.10;;;1.67;;
15946;SDS011;8072;52.554;7.966;2023-07-31T09:33:28;3.03;;;1.57;;
15946;SDS011;8072;52.554;7.966;2023-07-31T09:35:53;1.83;;;1.40;;
15946;SDS011;8072;52.554;7.966;2023-07-31T09:38:19;3.57;;;1.50;;
15946;SDS011;8072;52.554;7.966;2023-07-31T09:40:46;2.90;;;1.30;;
15946;SDS011;8072;52.554;7.966;2023-07-31T09:43:21;2.13;;;1.47;;
15946;SDS011;8072;52.554;7.966;2023-07-31T09:45:47;1.67;;;1.40;;
15946;SDS011;8072;52.554;7.966;2023-07-31T09:48:18;1.57;;;1.27;;
15946;SDS011;8072;52.554;7.966;2023-07-31T09:50:45;2.40;;;1.20;;
15946;SDS011;8072;52.554;7.966;2023-07-31T09:53:12;2.57;;;1.40;;
15946;SDS011;8072;52.554;7.966;2023-07-31T09:55:38;2.17;;;1.97;;
15946;SDS011;8072;52.554;7.966;2023-07-31T09:58:06;1.60;;;1.30;;
15946;SDS011;8072;52.554;7.966;2023-07-31T10:00:33;1.93;;;1.30;;
15946;SDS011;8072;52.554;7.966;2023-07-31T10:03:00;1.57;;;1.00;;
15946;SDS011;8072;52.554;7.966;2023-07-31T10:05:31;1.03;;;1.00;;
15946;SDS011;8072;52.554;7.966;2023-07-31T10:08:00;1.10;;;1.00;;
15946;SDS011;8072;52.554;7.966;2023-07-31T10:10:26;1.77;;;1.20;;
15946;SDS011;8072;52.554;7.966;2023-07-31T10:12:53;1.07;;;1.00;;
15946;SDS011;8072;52.554;7.966;2023-07-31T10:15:19;1.50;;;1.27;;
15946;SDS011;8072;52.554;7.966;2023-07-31T10:17:48;1.20;;;1.10;;
15946;SDS011;8072;52.554;7.966;2023-07-31T10:20:15;0.90;;;0.90;;
15946;SDS011;8072;52.554;7.966;2023-07-31T10:22:42;1.30;;;1.00;;
15946;SDS011;8072;52.554;7.966;2023-07-31T10:25:08;1.13;;;1.00;;
15946;SDS011;8072;52.554;7.966;2023-07-31T10:27:35;0.93;;;0.80;;
15946;SDS011;8072;52.554;7.966;2023-07-31T10:30:03;0.93;;;0.90;;
15946;SDS011;8072;52.554;7.966;2023-07-31T10:32:34;0.83;;;0.80;;
15946;SDS011;8072;52.554;7.966;2023-07-31T10:35:01;0.90;;;0.90;;
15946;SDS011;8072;52.554;7.966;2023-07-31T10:37:29;1.10;;;0.90;;
15946;SDS011;8072;52.554;7.966;2023-07-31T10:42:46;1.10;;;1.00;;
15946;SDS011;8072;52.554;7.966;2023-07-31T10:45:14;1.40;;;1.13;;
15946;SDS011;8072;52.554;7.966;2023-07-31T10:48:20;1.20;;;1.10;;
15946;SDS011;8072;52.554;7.966;2023-07-31T10:53:23;1.33;;;1.23;;
15946;SDS011;8072;52.554;7.966;2023-07-31T10:56:00;1.30;;;1.20;;
15946;SDS011;8072;52.554;7.966;2023-07-31T10:58:29;1.30;;;1.20;;
15946;SDS011;8072;52.554;7.966;2023-07-31T11:00:58;1.43;;;1.33;;
15946;SDS011;8072;52.554;7.966;2023-07-31T11:03:26;2.33;;;1.33;;
15946;SDS011;8072;52.554;7.966;2023-07-31T11:06:17;1.63;;;1.53;;
15946;SDS011;8072;52.554;7.966;2023-07-31T11:08:44;1.70;;;1.43;;
15946;SDS011;8072;52.554;7.966;2023-07-31T11:11:12;1.40;;;1.30;;
15946;SDS011;8072;52.554;7.966;2023-07-31T11:16:05;1.40;;;1.30;;
15946;SDS011;8072;52.554;7.966;2023-07-31T11:18:31;1.93;;;1.50;;
15946;SDS011;8072;52.554;7.966;2023-07-31T11:20:57;1.70;;;1.60;;
15946;SDS011;8072;52.554;7.966;2023-07-31T11:23:22;1.27;;;1.17;;
15946;SDS011;8072;52.554;7.966;2023-07-31T11:25:49;1.73;;;1.40;;
15946;SDS011;8072;52.554;7.966;2023-07-31T11:28:16;1.67;;;1.30;;
15946;SDS011;8072;52.554;7.966;2023-07-31T11:30:44;2.20;;;1.70;;
15946;SDS011;8072;52.554;7.966;2023-07-31T11:33:11;2.07;;;1.70;;
15946;SDS011;8072;52.554;7.966;2023-07-31T11:38:10;3.10;;;1.70;;
15946;SDS011;8072;52.554;7.966;2023-07-31T11:40:59;3.10;;;1.80;;
15946;SDS011;8072;52.554;7.966;2023-07-31T11:43:27;2.30;;;1.80;;
15946;SDS011;8072;52.554;7.966;2023-07-31T11:45:55;1.77;;;1.67;;
15946;SDS011;8072;52.554;7.966;2023-07-31T11:48:22;2.73;;;1.80;;
15946;SDS011;8072;52.554;7.966;2023-07-31T11:50:51;3.43;;;1.90;;
15946;SDS011;8072;52.554;7.966;2023-07-31T11:53:20;2.30;;;2.10;;
15946;SDS011;8072;52.554;7.966;2023-07-31T11:55:57;3.23;;;1.80;;
15946;SDS011;8072;52.554;7.966;2023-07-31T11:58:30;2.93;;;2.00;;
15946;SDS011;8072;52.554;7.966;2023-07-31T12:00:56;4.10;;;2.00;;
15946;SDS011;8072;52.554;7.966;2023-07-31T12:03:24;3.47;;;1.97;;
15946;SDS011;8072;52.554;7.966;2023-07-31T12:05:50;2.47;;;2.10;;
15946;SDS011;8072;52.554;7.966;2023-07-31T12:08:20;3.13;;;2.10;;
15946;SDS011;8072;52.554;7.966;2023-07-31T12:10:50;3.77;;;2.40;;
15946;SDS011;8072;52.554;7.966;2023-07-31T12:13:23;3.67;;;2.20;;
15946;SDS011;8072;52.554;7.966;2023-07-31T12:15:58;2.60;;;2.37;;
15946;SDS011;8072;52.554;7.966;2023-07-31T12:18:25;2.63;;;2.37;;
15946;SDS011;8072;52.554;7.966;2023-07-31T12:20:56;2.93;;;2.43;;
15946;SDS011;8072;52.554;7.966;2023-07-31T12:23:25;3.70;;;2.47;;
15946;SDS011;8072;52.554;7.966;2023-07-31T12:26:05;3.90;;;2.23;;
15946;SDS011;8072;52.554;7.966;2023-07-31T12:28:40;3.33;;;2.87;;
15946;SDS011;8072;52.554;7.966;2023-07-31T12:31:06;3.63;;;2.60;;
15946;SDS011;8072;52.554;7.966;2023-07-31T12:33:35;3.47;;;2.93;;
15946;SDS011;8072;52.554;7.966;2023-07-31T12:36:02;5.23;;;2.93;;
15946;SDS011;8072;52.554;7.966;2023-07-31T12:38:29;4.07;;;3.10;;
15946;SDS011;8072;52.554;7.966;2023-07-31T12:40:55;4.00;;;3.30;;
15946;SDS011;8072;52.554;7.966;2023-07-31T12:43:21;3.90;;;3.37;;
15946;SDS011;8072;52.554;7.966;2023-07-31T12:45:47;4.10;;;3.20;;
15946;SDS011;8072;52.554;7.966;2023-07-31T12:48:13;5.53;;;3.60;;
15946;SDS011;8072;52.554;7.966;2023-07-31T12:50:39;4.27;;;3.37;;
15946;SDS011;8072;52.554;7.966;2023-07-31T12:53:05;5.77;;;3.20;;
15946;SDS011;8072;52.554;7.966;2023-07-31T12:55:30;7.97;;;3.93;;
15946;SDS011;8072;52.554;7.966;2023-07-31T12:57:59;4.47;;;3.90;;
15946;SDS011;8072;52.554;7.966;2023-07-31T13:00:25;5.33;;;4.17;;
15946;SDS011;8072;52.554;7.966;2023-07-31T13:02:51;7.03;;;4.70;;
15946;SDS011;8072;52.554;7.966;2023-07-31T13:05:17;6.83;;;4.70;;
15946;SDS011;8072;52.554;7.966;2023-07-31T13:07:44;4.83;;;4.27;;
15946;SDS011;8072;52.554;7.966;2023-07-31T13:10:10;6.17;;;5.00;;
15946;SDS011;8072;52.554;7.966;2023-07-31T13:12:36;6.07;;;4.80;;
15946;SDS011;8072;52.554;7.966;2023-07-31T13:15:03;8.00;;;5.40;;
15946;SDS011;8072;52.554;7.966;2023-07-31T13:17:29;7.30;;;4.70;;
15946;SDS011;8072;52.554;7.966;2023-07-31T13:19:55;6.83;;;4.33;;
15946;SDS011;8072;52.554;7.966;2023-07-31T13:22:21;8.77;;;5.30;;
15946;SDS011;8072;52.554;7.966;2023-07-31T13:24:46;7.23;;;5.00;;
15946;SDS011;8072;52.554;7.966;2023-07-31T13:27:13;4.83;;;4.27;;
15946;SDS011;8072;52.554;7.966;2023-07-31T13:29:41;5.63;;;5.00;;
15946;SDS011;8072;52.554;7.966;2023-07-31T13:32:07;5.90;;;5.30;;
15946;SDS011;8072;52.554;7.966;2023-07-31T13:34:33;7.83;;;4.57;;
15946;SDS011;8072;52.554;7.966;2023-07-31T13:36:59;6.53;;;4.80;;
15946;SDS011;8072;52.554;7.966;2023-07-31T13:39:24;7.17;;;4.80;;
15946;SDS011;8072;52.554;7.966;2023-07-31T13:41:50;6.10;;;4.50;;
15946;SDS011;8072;52.554;7.966;2023-07-31T13:44:16;6.77;;;4.40;;
15946;SDS011;8072;52.554;7.966;2023-07-31T13:46:41;6.00;;;4.20;;
15946;SDS011;8072;52.554;7.966;2023-07-31T13:49:07;4.87;;;4.17;;
15946;SDS011;8072;52.554;7.966;2023-07-31T13:51:33;4.47;;;3.60;;
15946;SDS011;8072;52.554;7.966;2023-07-31T13:53:59;7.90;;;4.07;;
15946;SDS011;8072;52.554;7.966;2023-07-31T13:56:26;4.80;;;3.70;;
15946;SDS011;8072;52.554;7.966;2023-07-31T13:58:52;7.43;;;3.60;;
15946;SDS011;8072;52.554;7.966;2023-07-31T14:01:17;5.53;;;3.63;;
15946;SDS011;8072;52.554;7.966;2023-07-31T14:03:43;11.90;;;3.73;;
15946;SDS011;8072;52.554;7.966;2023-07-31T14:06:09;3.90;;;3.50;;
15946;SDS011;8072;52.554;7.966;2023-07-31T14:08:35;3.80;;;3.27;;
15946;SDS011;8072;52.554;7.966;2023-07-31T14:11:00;5.27;;;3.30;;
15946;SDS011;8072;52.554;7.966;2023-07-31T14:13:26;5.17;;;3.67;;
15946;SDS011;8072;52.554;7.966;2023-07-31T14:15:52;6.37;;;4.40;;
15946;SDS011;8072;52.554;7.966;2023-07-31T14:18:18;5.93;;;3.63;;
15946;SDS011;8072;52.554;7.966;2023-07-31T14:20:44;6.80;;;3.70;;
15946;SDS011;8072;52.554;7.966;2023-07-31T14:23:09;6.60;;;3.60;;
15946;SDS011;8072;52.554;7.966;2023-07-31T14:25:35;7.37;;;3.90;;
15946;SDS011;8072;52.554;7.966;2023-07-31T14:28:01;4.70;;;3.90;;
15946;SDS011;8072;52.554;7.966;2023-07-31T14:30:27;5.67;;;3.37;;
15946;SDS011;8072;52.554;7.966;2023-07-31T14:32:52;4.87;;;3.80;;
15946;SDS011;8072;52.554;7.966;2023-07-31T14:35:18;6.03;;;4.20;;
15946;SDS011;8072;52.554;7.966;2023-07-31T14:37:44;7.00;;;4.53;;
15946;SDS011;8072;52.554;7.966;2023-07-31T14:40:11;7.23;;;5.27;;
15946;SDS011;8072;52.554;7.966;2023-07-31T14:42:38;6.30;;;5.40;;
15946;SDS011;8072;52.554;7.966;2023-07-31T14:45:05;9.13;;;5.40;;
15946;SDS011;8072;52.554;7.966;2023-07-31T14:47:32;7.40;;;5.13;;
15946;SDS011;8072;52.554;7.966;2023-07-31T14:49:58;11.73;;;5.30;;
15946;SDS011;8072;52.554;7.966;2023-07-31T14:52:25;11.47;;;5.80;;
15946;SDS011;8072;52.554;7.966;2023-07-31T14:54:51;6.80;;;5.57;;
15946;SDS011;8072;52.554;7.966;2023-07-31T14:57:17;7.40;;;5.37;;
15946;SDS011;8072;52.554;7.966;2023-07-31T14:59:43;8.00;;;5.27;;
15946;SDS011;8072;52.554;7.966;2023-07-31T15:02:10;7.87;;;4.93;;
15946;SDS011;8072;52.554;7.966;2023-07-31T15:04:36;6.73;;;4.90;;
15946;SDS011;8072;52.554;7.966;2023-07-31T15:07:02;9.63;;;5.73;;
15946;SDS011;8072;52.554;7.966;2023-07-31T15:09:28;9.53;;;5.10;;
15946;SDS011;8072;52.554;7.966;2023-07-31T15:11:55;6.00;;;4.53;;